Terminal Aerodrome Forecast
Issued by NWS

Home | Current Version | Previous Version | Text Only | Print | Product List | Glossary On
Versions: 1 2 3 4 5 6 7 8 9 10 11 12 13 14 15
503
FTUS42 KJAX 262344
TAFVQQ
TAF
KVQQ 262344Z 2700/2724 08008KT P6SM SKC
     FM270200 08002KT P6SM SKC
     FM271400 07010KT P6SM FEW040=

USA.gov is the U.S. government's official web portal to all federal, state and local government web resources and services.